This is the latest recevied weather packets stored in our database for station/object YC2UTR-2. If no packets are shown the sender has not sent any weather packets the latest 10 day(s).
| Time | Temp. | Humidity | Pressure | Rain* | Wind** | Luminosity | Snow |
|---|---|---|---|---|---|---|---|
| 1787374867 | 31.67° C | 52% | 1016.1 hPa | - | - | - | - |
| 1787374567 | 31.67° C | 53% | 1016.1 hPa | - | - | - | - |
| 1787374267 | 31.11° C | 53% | 1016.2 hPa | - | - | - | - |
| 1787373967 | 30.56° C | 55% | 1016.3 hPa | - | - | - | - |
| 1787373668 | 31.11° C | 55% | 1016.4 hPa | - | - | - | - |
| 1787373367 | 31.11° C | 55% | 1016.5 hPa | - | - | - | - |
| 1787373067 | 31.11° C | 55% | 1016.5 hPa | - | - | - | - |
| 1787372767 | 30.56° C | 57% | 1016.6 hPa | - | - | - | - |
| 1787372467 | 30° C | 58% | 1016.8 hPa | - | - | - | - |
| 1787372168 | 30.56° C | 56% | 1016.8 hPa | - | - | - | - |
| 1787371867 | 31.11° C | 55% | 1016.8 hPa | - | - | - | - |
| 1787371567 | 30.56° C | 56% | 1017 hPa | - | - | - | - |
| 1787371267 | 30.56° C | 56% | 1017.1 hPa | - | - | - | - |
| 1787370968 | 30.56° C | 57% | 1017.1 hPa | - | - | - | - |
| 1787370667 | 30° C | 59% | 1017.3 hPa | - | - | - | - |
| 1787370367 | 30° C | 59% | 1017.4 hPa | - | - | - | - |
| 1787370068 | 30° C | 58% | 1017.4 hPa | - | - | - | - |
| 1787369768 | 30.56° C | 57% | 1017.5 hPa | - | - | - | - |
| 1787369468 | 30° C | 60% | 1017.7 hPa | - | - | - | - |
| 1787369168 | 30° C | 57% | 1017.7 hPa | - | - | - | - |
| 1787368868 | 29.44° C | 61% | 1017.9 hPa | - | - | - | - |
| 1787368568 | 30° C | 60% | 1018 hPa | - | - | - | - |
| 1787368268 | 29.44° C | 61% | 1018 hPa | - | - | - | - |
| 1787367968 | 28.89° C | 62% | 1018.1 hPa | - | - | - | - |
| 1787367668 | 29.44° C | 63% | 1018.1 hPa | - | - | - | - |
* Rain since midnight (hover to see other rain measurements)
** Current wind speed in m/s (hover to see current wind gust speed)